sensor_id;sensor_type;location;lat;lon;timestamp;pressure;altitude;pressure_sealevel;temperature;humidity
929;BME280;451;47.988;7.842;2022-09-06T00:01:15;98552.81;;;19.84;100.00
929;BME280;451;47.988;7.842;2022-09-06T00:10:17;98542.28;;;19.89;100.00
929;BME280;451;47.988;7.842;2022-09-06T00:19:19;98511.09;;;19.59;100.00
929;BME280;451;47.988;7.842;2022-09-06T00:28:20;98556.31;;;19.54;100.00
929;BME280;451;47.988;7.842;2022-09-06T00:37:22;98554.03;;;19.69;100.00
929;BME280;451;47.988;7.842;2022-09-06T00:46:26;98571.69;;;19.70;100.00
929;BME280;451;47.988;7.842;2022-09-06T00:55:29;98518.59;;;19.51;100.00
929;BME280;451;47.988;7.842;2022-09-06T01:04:31;98569.97;;;19.46;100.00
929;BME280;451;47.988;7.842;2022-09-06T01:13:48;98572.22;;;19.43;100.00
929;BME280;451;47.988;7.842;2022-09-06T01:32:16;98572.75;;;19.51;100.00
929;BME280;451;47.988;7.842;2022-09-06T01:41:20;98583.81;;;19.55;100.00
929;BME280;451;47.988;7.842;2022-09-06T02:09:10;98562.50;;;19.96;100.00
929;BME280;451;47.988;7.842;2022-09-06T02:18:18;98571.34;;;20.08;100.00
929;BME280;451;47.988;7.842;2022-09-06T02:27:22;98555.41;;;19.90;100.00
929;BME280;451;47.988;7.842;2022-09-06T02:36:24;98569.28;;;20.22;100.00
929;BME280;451;47.988;7.842;2022-09-06T02:45:26;98514.75;;;19.77;100.00
929;BME280;451;47.988;7.842;2022-09-06T02:54:28;98572.94;;;20.51;100.00
929;BME280;451;47.988;7.842;2022-09-06T03:03:30;98581.78;;;20.75;100.00
929;BME280;451;47.988;7.842;2022-09-06T03:12:31;98564.34;;;20.37;100.00
929;BME280;451;47.988;7.842;2022-09-06T03:21:33;98578.56;;;20.20;100.00
929;BME280;451;47.988;7.842;2022-09-06T03:30:35;98565.25;;;19.90;100.00
929;BME280;451;47.988;7.842;2022-09-06T03:39:37;98542.03;;;19.79;100.00
929;BME280;451;47.988;7.842;2022-09-06T03:48:39;98541.94;;;19.37;100.00
929;BME280;451;47.988;7.842;2022-09-06T03:57:40;98532.16;;;19.31;100.00
929;BME280;451;47.988;7.842;2022-09-06T04:06:42;98523.88;;;19.21;100.00
929;BME280;451;47.988;7.842;2022-09-06T04:15:45;98531.13;;;19.32;100.00
929;BME280;451;47.988;7.842;2022-09-06T04:24:48;98515.63;;;18.92;100.00
929;BME280;451;47.988;7.842;2022-09-06T04:33:49;98552.13;;;19.10;100.00
929;BME280;451;47.988;7.842;2022-09-06T04:42:51;98571.06;;;19.02;100.00
929;BME280;451;47.988;7.842;2022-09-06T04:51:53;98534.25;;;18.74;100.00
929;BME280;451;47.988;7.842;2022-09-06T05:00:54;98556.63;;;18.91;100.00
929;BME280;451;47.988;7.842;2022-09-06T05:09:56;98549.94;;;19.01;100.00
929;BME280;451;47.988;7.842;2022-09-06T05:18:59;98582.75;;;19.01;100.00
929;BME280;451;47.988;7.842;2022-09-06T05:28:01;98569.81;;;19.23;100.00
929;BME280;451;47.988;7.842;2022-09-06T05:37:03;98588.16;;;19.67;100.00
929;BME280;451;47.988;7.842;2022-09-06T05:46:04;98627.41;;;20.08;100.00
929;BME280;451;47.988;7.842;2022-09-06T05:55:06;98621.50;;;20.18;100.00
929;BME280;451;47.988;7.842;2022-09-06T06:04:08;98582.47;;;20.35;100.00
929;BME280;451;47.988;7.842;2022-09-06T06:13:10;98606.72;;;21.50;100.00
929;BME280;451;47.988;7.842;2022-09-06T06:22:11;98614.38;;;21.98;100.00
929;BME280;451;47.988;7.842;2022-09-06T06:31:14;98605.38;;;22.04;100.00
929;BME280;451;47.988;7.842;2022-09-06T06:40:16;98592.09;;;22.09;100.00
929;BME280;451;47.988;7.842;2022-09-06T06:49:18;98605.84;;;22.30;100.00
929;BME280;451;47.988;7.842;2022-09-06T06:58:19;98640.47;;;22.20;100.00
929;BME280;451;47.988;7.842;2022-09-06T07:07:21;98619.91;;;22.08;100.00
929;BME280;451;47.988;7.842;2022-09-06T07:16:23;98650.81;;;21.48;100.00
929;BME280;451;47.988;7.842;2022-09-06T07:25:25;98669.19;;;20.33;100.00
929;BME280;451;47.988;7.842;2022-09-06T07:34:27;98641.88;;;20.01;100.00
929;BME280;451;47.988;7.842;2022-09-06T07:43:29;98666.88;;;20.36;100.00
929;BME280;451;47.988;7.842;2022-09-06T07:52:31;98638.34;;;19.89;100.00
929;BME280;451;47.988;7.842;2022-09-06T08:01:37;98697.97;;;20.61;100.00
929;BME280;451;47.988;7.842;2022-09-06T08:10:39;98688.84;;;20.50;100.00
929;BME280;451;47.988;7.842;2022-09-06T08:19:40;98661.13;;;20.63;100.00
929;BME280;451;47.988;7.842;2022-09-06T08:28:43;98669.31;;;20.91;100.00
929;BME280;451;47.988;7.842;2022-09-06T08:37:44;98687.09;;;20.97;100.00
929;BME280;451;47.988;7.842;2022-09-06T08:47:08;98694.09;;;21.33;100.00
929;BME280;451;47.988;7.842;2022-09-06T08:56:11;98669.25;;;22.41;100.00
929;BME280;451;47.988;7.842;2022-09-06T09:05:29;98639.84;;;22.46;100.00
929;BME280;451;47.988;7.842;2022-09-06T09:14:34;98566.78;;;22.17;100.00
929;BME280;451;47.988;7.842;2022-09-06T09:23:38;98549.97;;;22.38;100.00
929;BME280;451;47.988;7.842;2022-09-06T09:32:42;98581.84;;;23.28;100.00
929;BME280;451;47.988;7.842;2022-09-06T09:41:49;98557.13;;;23.70;100.00
929;BME280;451;47.988;7.842;2022-09-06T09:50:52;98521.53;;;24.11;100.00
929;BME280;451;47.988;7.842;2022-09-06T09:59:55;98501.38;;;24.09;100.00
929;BME280;451;47.988;7.842;2022-09-06T10:09:12;98523.84;;;23.98;100.00
929;BME280;451;47.988;7.842;2022-09-06T10:18:34;98540.28;;;25.17;100.00
929;BME280;451;47.988;7.842;2022-09-06T10:46:32;98548.03;;;25.71;100.00
929;BME280;451;47.988;7.842;2022-09-06T10:55:36;98581.56;;;26.31;100.00
929;BME280;451;47.988;7.842;2022-09-06T11:04:42;98581.03;;;26.39;100.00
929;BME280;451;47.988;7.842;2022-09-06T11:13:45;98572.25;;;27.28;100.00
929;BME280;451;47.988;7.842;2022-09-06T11:41:43;98592.31;;;26.81;100.00
929;BME280;451;47.988;7.842;2022-09-06T12:00:01;98588.69;;;27.42;100.00
929;BME280;451;47.988;7.842;2022-09-06T12:27:54;98579.31;;;27.14;100.00
929;BME280;451;47.988;7.842;2022-09-06T12:36:59;98554.69;;;27.90;100.00
929;BME280;451;47.988;7.842;2022-09-06T12:46:04;98537.00;;;28.41;93.62
929;BME280;451;47.988;7.842;2022-09-06T12:55:15;98509.88;;;29.04;87.49
929;BME280;451;47.988;7.842;2022-09-06T13:04:25;98505.53;;;28.79;83.58
929;BME280;451;47.988;7.842;2022-09-06T13:13:28;98490.00;;;28.90;86.28
929;BME280;451;47.988;7.842;2022-09-06T13:22:44;98479.63;;;28.97;88.66
929;BME280;451;47.988;7.842;2022-09-06T13:31:52;98473.34;;;28.49;90.85
929;BME280;451;47.988;7.842;2022-09-06T13:40:54;98471.69;;;28.53;92.00
929;BME280;451;47.988;7.842;2022-09-06T13:49:56;98437.63;;;29.18;86.58
929;BME280;451;47.988;7.842;2022-09-06T13:58:57;98464.41;;;29.01;73.93
929;BME280;451;47.988;7.842;2022-09-06T14:08:02;98454.31;;;28.30;80.08
929;BME280;451;47.988;7.842;2022-09-06T14:17:04;98464.72;;;28.13;89.28
929;BME280;451;47.988;7.842;2022-09-06T14:26:05;98451.91;;;27.95;84.59
929;BME280;451;47.988;7.842;2022-09-06T14:35:07;98420.94;;;28.16;81.72
929;BME280;451;47.988;7.842;2022-09-06T14:44:09;98439.94;;;29.06;79.20
929;BME280;451;47.988;7.842;2022-09-06T14:53:11;98439.03;;;28.68;71.68
929;BME280;451;47.988;7.842;2022-09-06T15:02:13;98385.91;;;28.01;75.23
929;BME280;451;47.988;7.842;2022-09-06T15:11:38;98421.66;;;27.93;79.87
929;BME280;451;47.988;7.842;2022-09-06T15:20:40;98397.59;;;27.62;82.75
929;BME280;451;47.988;7.842;2022-09-06T15:29:41;98383.53;;;27.65;87.44
929;BME280;451;47.988;7.842;2022-09-06T15:38:45;98333.09;;;27.85;83.81
929;BME280;451;47.988;7.842;2022-09-06T15:47:48;98275.22;;;27.28;85.28
929;BME280;451;47.988;7.842;2022-09-06T15:56:50;98311.59;;;27.69;82.48
929;BME280;451;47.988;7.842;2022-09-06T16:05:51;98314.22;;;27.80;87.68
929;BME280;451;47.988;7.842;2022-09-06T16:14:53;98319.78;;;26.92;100.00
929;BME280;451;47.988;7.842;2022-09-06T16:23:57;98238.19;;;25.96;89.70
929;BME280;451;47.988;7.842;2022-09-06T16:32:59;98306.25;;;26.37;82.64
929;BME280;451;47.988;7.842;2022-09-06T16:42:01;98306.00;;;26.34;76.62
929;BME280;451;47.988;7.842;2022-09-06T16:51:14;98293.16;;;26.00;74.70
929;BME280;451;47.988;7.842;2022-09-06T17:00:17;98283.75;;;25.88;75.52
929;BME280;451;47.988;7.842;2022-09-06T17:09:18;98274.38;;;25.40;78.98
929;BME280;451;47.988;7.842;2022-09-06T17:18:22;98291.63;;;25.39;81.49
929;BME280;451;47.988;7.842;2022-09-06T17:27:26;98267.09;;;24.79;84.85
929;BME280;451;47.988;7.842;2022-09-06T17:36:30;98300.09;;;24.55;92.19
929;BME280;451;47.988;7.842;2022-09-06T17:45:40;98295.81;;;24.01;100.00
929;BME280;451;47.988;7.842;2022-09-06T17:54:45;98299.13;;;23.71;100.00
929;BME280;451;47.988;7.842;2022-09-06T18:03:48;98266.50;;;23.16;100.00
929;BME280;451;47.988;7.842;2022-09-06T18:12:50;98304.00;;;22.84;100.00
929;BME280;451;47.988;7.842;2022-09-06T18:21:52;98321.66;;;22.36;100.00
929;BME280;451;47.988;7.842;2022-09-06T18:30:59;98261.41;;;21.57;100.00
929;BME280;451;47.988;7.842;2022-09-06T18:40:03;98328.38;;;21.62;100.00
929;BME280;451;47.988;7.842;2022-09-06T18:49:05;98304.69;;;21.04;100.00
929;BME280;451;47.988;7.842;2022-09-06T18:58:08;98302.53;;;20.89;100.00
929;BME280;451;47.988;7.842;2022-09-06T19:07:11;98335.84;;;20.70;100.00
929;BME280;451;47.988;7.842;2022-09-06T19:16:12;98330.41;;;20.65;100.00
929;BME280;451;47.988;7.842;2022-09-06T19:25:14;98338.03;;;21.01;100.00
929;BME280;451;47.988;7.842;2022-09-06T19:34:16;98265.38;;;20.59;100.00
929;BME280;451;47.988;7.842;2022-09-06T19:43:18;98290.50;;;20.75;100.00
929;BME280;451;47.988;7.842;2022-09-06T19:52:20;98271.09;;;20.79;100.00
929;BME280;451;47.988;7.842;2022-09-06T20:01:24;98305.94;;;21.01;100.00
929;BME280;451;47.988;7.842;2022-09-06T20:10:26;98294.09;;;20.80;100.00
929;BME280;451;47.988;7.842;2022-09-06T20:19:28;98247.59;;;20.65;100.00
929;BME280;451;47.988;7.842;2022-09-06T20:28:30;98315.03;;;21.00;100.00
929;BME280;451;47.988;7.842;2022-09-06T20:37:32;98261.75;;;20.65;100.00
929;BME280;451;47.988;7.842;2022-09-06T20:46:35;98281.81;;;20.96;100.00
929;BME280;451;47.988;7.842;2022-09-06T20:55:37;98309.75;;;21.33;100.00
929;BME280;451;47.988;7.842;2022-09-06T21:04:39;98285.47;;;21.07;100.00
929;BME280;451;47.988;7.842;2022-09-06T21:13:41;98312.81;;;21.25;100.00
929;BME280;451;47.988;7.842;2022-09-06T21:22:42;98393.06;;;20.45;100.00
929;BME280;451;47.988;7.842;2022-09-06T21:31:44;98400.47;;;20.55;100.00
929;BME280;451;47.988;7.842;2022-09-06T21:40:46;98335.72;;;20.36;100.00
929;BME280;451;47.988;7.842;2022-09-06T21:49:48;98324.13;;;20.42;100.00
929;BME280;451;47.988;7.842;2022-09-06T21:58:51;98331.50;;;20.52;100.00
929;BME280;451;47.988;7.842;2022-09-06T22:07:53;98280.47;;;20.65;100.00
929;BME280;451;47.988;7.842;2022-09-06T22:16:55;98313.66;;;20.98;100.00
929;BME280;451;47.988;7.842;2022-09-06T22:26:10;98296.47;;;21.22;100.00
929;BME280;451;47.988;7.842;2022-09-06T22:35:13;98277.50;;;21.23;100.00
929;BME280;451;47.988;7.842;2022-09-06T22:44:15;98298.06;;;21.40;100.00
929;BME280;451;47.988;7.842;2022-09-06T22:53:18;98246.84;;;21.31;100.00
929;BME280;451;47.988;7.842;2022-09-06T23:02:21;98248.91;;;20.79;100.00
929;BME280;451;47.988;7.842;2022-09-06T23:11:23;98275.16;;;20.82;100.00
929;BME280;451;47.988;7.842;2022-09-06T23:20:24;98267.19;;;20.70;100.00
929;BME280;451;47.988;7.842;2022-09-06T23:29:27;98262.03;;;21.64;100.00
929;BME280;451;47.988;7.842;2022-09-06T23:38:30;98284.59;;;21.18;100.00
929;BME280;451;47.988;7.842;2022-09-06T23:47:32;98274.38;;;21.15;100.00
929;BME280;451;47.988;7.842;2022-09-06T23:56:35;98289.66;;;20.58;100.00
